Wolf River 5k 2018

# of participants: 719# of finishers: 620last updated: 2/15/2018 11:08 am
Result Questions?
Award Finish Video Bib First Name Last Name Gun Time Elapsed Time Pace Category Cat Rank Gender Gen Rank Age Age Group AG Rank City ST
View Video 393 KATIE NORRID 33:36.25 32:23.61 10:25/mile 5K 401 F 193 32 30-34 28 GERMANTOWN TN
View Video 627 DAVID WRIGHT 32:48.77 32:26.55 10:26/mile 5K 402 M 209 63 60-64 13 BARTLETT TN
View Video 647 ALAN WYATT 33:04.02 32:27.88 10:26/mile 5K 403 M 210 61 60-64 14 BARTLETT TN
View Video 142 BECKY ELKINS 33:26.42 32:29.42 10:27/mile 5K 404 F 194 42 40-44 34 CORDOVA TN
View Video 89 KC CLEMENTE 32:58.80 32:30.15 10:27/mile 5K 405 F 195 23 20-24 8 MEMPHIS NY
View Video 228 WHITNEY HART 33:16.86 32:31.61 10:28/mile 5K 406 F 196 31 30-34 29 LAKELAND TN
View Video 431 AMANDA PINTO 33:51.85 32:36.90 10:29/mile 5K 407 F 197 32 30-34 30 COLLIERVILLE TN
View Video 47 IRIS BOEHNKE 33:42.30 32:41.37 10:31/mile 5K 408 F 198 51 50-54 13 MILLINGTON TN
View Video 450 KATHLEEN QUINLEN 34:16.28 32:43.02 10:31/mile 5K 409 F 199 39 35-39 30 MEMPHIS TN
View Video 626 CINDY WRIGHT 33:07.45 32:44.55 10:32/mile 5K 410 F 200 62 60-64 8 BARTLETT TN
View Video 577 JOHN TYLER 33:38.95 32:45.27 10:32/mile 5K 411 M 211 65 65-69 8 BARTLETT TN
View Video 573 JOHN TURNER 34:34.06 32:57.17 10:36/mile 5K 412 M 212 52 50-54 22 MUNFORD TN
View Video 12 TIM ASBRIDGE 34:32.95 33:00.60 10:37/mile 5K 413 M 213 38 35-39 34 ARLINGTON TN
View Video 203 WILLIAM GRAY 33:58.11 33:01.41 10:37/mile 5K 414 M 214 50 50-54 23 MEMPHIS TN
View Video 217 JACKIE HALL 33:57.88 33:02.25 10:37/mile 5K 415 F 201 53 50-54 14 GERMANTOWN TN
View Video 152 JULIE FAULKNER 33:15.68 33:02.91 10:38/mile 5K 416 F 202 46 45-49 23 MARION AR
View Video 282 JULIA KAVANAGH 33:18.88 33:05.30 10:38/mile 5K 417 F 203 34 30-34 31 MEMPHIS TN
View Video 268 NANCY IMRE 34:06.95 33:10.74 10:40/mile 5K 418 F 204 54 50-54 15 CORDOVA TN
View Video 30 BARBARA BECKERMAN 34:12.92 33:17.95 10:43/mile 5K 419 F 205 56 55-59 10 GERMANTOWN TN
View Video 231 SUELYNN HARTNESS 34:34.83 33:21.43 10:44/mile 5K 420 F 206 44 40-44 35 COLLIERVILLE TN
View Video 722 BOB HOOPER 34:35.26 33:23.07 10:44/mile 5K 421 M 215 48 45-49 28
View Video 91 SARAH COBB 34:47.87 33:24.28 10:45/mile 5K 422 F 207 30 30-34 32 MEMPHIS TN
View Video 636 MATTHEW ZUFALL 34:46.80 33:24.37 10:45/mile 5K 423 M 216 52 50-54 24 CORDOVA TN
View Video 718 SIERRA MINNICK 33:40.73 33:26.37 10:45/mile 5K 424 F 208 11 10-14 4
View Video 688 SALINA XU 34:37.23 33:34.01 10:48/mile 5K 425 F 209 50 50-54 16 COLLIERVILLE TN
View Video 182 GRACE GILLENWATER 34:30.93 33:39.27 10:49/mile 5K 426 F 210 51 50-54 17 MEMPHIS TN
View Video 194 GALEN GOWER 34:45.79 33:40.56 10:50/mile 5K 427 M 217 38 35-39 35 MEMPHIS TN
View Video 523 HUNTER SMITH 35:01.16 33:53.10 10:54/mile 5K 428 M 218 29 25-29 20 MEMPHIS TN
View Video 281 GRACE KATSOTIS 34:21.56 34:05.50 10:58/mile 5K 429 F 211 26 25-29 39 MEMPHIS TN
View Video 308 JOSH LAMMERS 35:28.41 34:07.45 10:58/mile 5K 430 M 219 21 20-24 15 BLYTHEVILLE AR
View Video 309 KAT LANCASTER 35:07.29 34:10.88 11:00/mile 5K 431 F 212 26 25-29 40 CORDOVA TN
View Video 76 THOMAS CARROLL 34:56.06 34:11.44 11:00/mile 5K 432 M 220 51 50-54 25 COLLIERVILLE TN
View Video 248 RAQUEL HINSON 35:09.38 34:12.03 11:00/mile 5K 433 F 213 28 25-29 41 MEMPHIS TN
View Video 433 VICKIE PITMAN 34:40.60 34:16.83 11:01/mile 5K 434 F 214 47 45-49 24 GERMANTOWN TN
View Video 554 MICAH TEED 35:55.57 34:16.84 11:02/mile 5K 435 M 221 25 25-29 21 OLIVE BRANCH MS
View Video 33 AMY BENNETT 35:37.74 34:17.83 11:02/mile 5K 436 F 215 44 40-44 36 WALNUT MS
View Video 65 PAULETTA BROWN 35:56.94 34:20.86 11:03/mile 5K 437 F 216 39 35-39 31 GERMANTOWN TN
View Video 550 LARRY TAYLOR 35:41.75 34:24.24 11:04/mile 5K 438 M 222 53 50-54 26 SOUTHAVEN MS
View Video 721 SANTHI PAKALAPATI 34:39.22 34:25.29 11:04/mile 5K 439 F 217 38 35-39 32
View Video 675 SANDRA HOOVER 35:50.65 34:25.45 11:04/mile 5K 440 F 218 44 40-44 37 CORDOVA TN
View Video 411 MEGHAN PARKER 35:04.83 34:39.84 11:09/mile 5K 441 F 219 25 25-29 42 SPRINGFIELD TN
View Video 361 MICHELLE MCKIM 36:19.30 34:42.34 11:10/mile 5K 442 F 220 48 45-49 25 OLIVE BRANCH MS
View Video 61 JIM BROOKS 36:28.89 34:44.69 11:10/mile 5K 443 M 223 76 70-98 2 MEMPHIS TN
View Video 294 MICHAEL KITCHENS 35:51.24 34:45.66 11:11/mile 5K 444 M 224 60 60-64 15 GERMANTOWN TN
View Video 555 ROBERT TEMPLE 36:26.61 34:53.88 11:13/mile 5K 445 M 225 29 25-29 22 MEMPHIS TN
View Video 125 KATE DIRKES 35:48.30 35:01.44 11:16/mile 5K 446 F 221 35 35-39 33 ARLINGTON TN
View Video 324 JOSALYNNE LOVE 36:12.79 35:10.27 11:19/mile 5K 447 F 222 27 25-29 43 MEMPHIS TN
View Video 106 LAUREN DACUS 35:44.14 35:10.90 11:19/mile 5K 448 F 223 19 15-19 5 COLLIERVILLE TN
View Video 509 LACY SHARPE 36:33.19 35:11.29 11:19/mile 5K 449 F 224 33 30-34 33 ARLINGTON TN
View Video 99 SHELLEY COX 36:00.55 35:15.99 11:21/mile 5K 450 F 225 26 25-29 44 MEMPHIS TN
View Video 574 MICHELLE TURNER 36:00.30 35:16.50 11:21/mile 5K 451 F 226 24 20-24 9 MEMPHIS TN
View Video 376 DESREMONA MORGAN 36:36.13 35:17.67 11:21/mile 5K 452 F 227 54 50-54 18 BARTLETT TN
View Video 503 JANE SCOTT 36:13.55 35:18.92 11:21/mile 5K 453 F 228 66 65-69 2 GERMANTOWN TN
View Video 108 MARY DARBY 36:39.12 35:20.50 11:22/mile 5K 454 M 226 29 25-29 23 TUNICA MS
View Video 257 ANDREW HOUSTON 36:54.88 35:22.18 11:23/mile 5K 455 M 227 28 25-29 24 MEMPHIS TN
View Video 648 STEVEN T LACKEY 36:09.21 35:25.46 11:24/mile 5K 456 M 228 49 45-49 29
View Video 211 GABRIELLE GULSTROM 36:17.50 35:27.55 11:24/mile 5K 457 F 229 8 1-9 1 COLLIERVILLE TN
View Video 463 SACHIN RELIA 37:04.86 35:29.15 11:25/mile 5K 458 M 229 40 40-44 30 MEMPHIS TN
View Video 212 STEPHEN GULSTROM 36:19.42 35:29.26 11:25/mile 5K 459 M 230 52 50-54 27 COLLIERVILLE TN
View Video 489 WENDY SALA 36:16.80 35:41.05 11:29/mile 5K 460 F 230 49 45-49 26 GERMANTOWN TN
View Video 16 MAURY BALLENGER 36:42.19 35:41.75 11:29/mile 5K 461 F 231 51 50-54 19 MEMPHIS TN
View Video 406 LISA OVERALL 36:38.35 35:41.78 11:29/mile 5K 462 F 232 46 45-49 27 MEMPHIS TN
View Video 396 LISHA O'BOYLE 37:03.48 35:41.88 11:29/mile 5K 463 F 233 25 25-29 45 MEMPHIS TN
View Video 658 CHRIS CAMPBELL 37:05.27 35:42.54 11:29/mile 5K 464 M 231 47 45-49 30
View Video 384 ALYX MURPHY 36:04.32 35:45.27 11:30/mile 5K 465 F 234 25 25-29 46 MEMPHIS TN
View Video 154 SUSAN FENTRESS 36:36.88 35:46.81 11:30/mile 5K 466 F 235 59 55-59 11 MEMPHIS TN
View Video 270 ANGELA JACKSON 37:03.77 35:47.37 11:31/mile 5K 467 F 236 39 35-39 34 MEMPHIS TN
View Video 458 JEN RECTOR 36:48.77 35:48.86 11:31/mile 5K 468 F 237 33 30-34 34 GERMANTOWN TN
View Video 581 ASHLEY VELKE 36:10.85 35:50.30 11:32/mile 5K 469 F 238 27 25-29 47 CORDOVA TN
View Video 537 JULIA STEFFEN 37:07.01 35:51.99 11:32/mile 5K 470 F 239 41 40-44 38 MEMPHIS TN
View Video 726 MIRIAM DILLARD STROUD 36:46.00 35:52.42 11:32/mile 5K 471 F 240 37 35-39 35 MEMPHIS TN
View Video 536 JIM STEFFEN 37:07.43 35:52.97 11:32/mile 5K 472 M 232 43 40-44 31 MEMPHIS TN
View Video 94 GUS CONNELLY 37:02.60 36:02.66 11:36/mile 5K 473 M 233 28 25-29 25 MEMPHIS TN
View Video 62 ASHLEY BROWN 36:33.76 36:03.98 11:36/mile 5K 474 F 241 26 25-29 48 CORDOVA TN
View Video 345 PHYLLIS MCBRIDE 37:26.51 36:08.02 11:37/mile 5K 475 F 242 60 60-64 9 FORREST CITY AR
View Video 420 JACKIE PENNEL 37:21.01 36:09.35 11:38/mile 5K 476 F 243 66 65-69 3 CORDOVA TN
View Video 701 DEBBIE DENNY 37:04.26 36:15.92 11:40/mile 5K 477 F 244 47 45-49 28
View Video 138 KYLE EATON 37:35.09 36:23.05 11:42/mile 5K 478 M 234 36 35-39 36 GERMANTOWN TN
View Video 711 JOSEPH PALUGI 36:33.72 36:24.25 11:43/mile 5K 479 M 235 36 35-39 37
View Video 326 DORI LUBIN 36:52.54 36:29.34 11:44/mile 5K 480 F 245 36 35-39 36 MEMPHIS TN
View Video 135 SARAH DUNCAN 37:43.01 36:31.84 11:45/mile 5K 481 F 246 33 30-34 35 COLLIERVILLE TN
View Video 723 KERI SNYDER 37:19.62 36:32.76 11:45/mile 5K 482 F 247 38 35-39 37
View Video 85 DAWN CHILES 38:07.71 36:42.83 11:48/mile 5K 483 F 248 49 45-49 29 MEMPHIS TN
View Video 430 MARKHAM PIERCE 37:55.31 36:47.97 11:50/mile 5K 484 M 236 46 45-49 31 MEMPHIS TN
View Video 534 MITCHELL SPURLOCK 38:06.07 36:52.83 11:52/mile 5K 485 M 237 61 60-64 16 GERMANTOWN TN
View Video 490 GENA SALVAGGIO 38:11.52 36:56.92 11:53/mile 5K 486 F 249 53 50-54 20 SOMERVILLE TN
View Video 201 MEGAN GRAVES 37:47.77 36:59.88 11:54/mile 5K 487 F 250 23 20-24 10 SOUTHAVEN MS
View Video 524 JODIE SMITH 37:40.24 37:00.53 11:54/mile 5K 488 F 251 43 40-44 39 CORDOVA TN
View Video 59 JIM BRISKE 37:49.52 37:03.56 11:55/mile 5K 489 M 238 78 70-98 3 GERMANTOWN TN
View Video 578 LEIGH TAYLOR UNRUH 37:52.75 37:07.86 11:57/mile 5K 490 F 252 38 35-39 38 BATESVILLE MS
View Video 19 JUDY BARLOW 37:40.22 37:14.55 11:59/mile 5K 491 F 253 59 55-59 12 COLLIERVILLE TN
View Video 571 NATHAN TUBBS 38:03.76 37:15.87 11:59/mile 5K 492 M 239 24 20-24 16 NESBIT MS
View Video 213 LESLIE HADDAD 37:53.05 37:17.23 12:00/mile 5K 493 F 254 60 60-64 10 COLLIERVILLE TN
View Video 181 COLLEEN GIDEON 38:27.66 37:20.37 12:01/mile 5K 494 F 255 31 30-34 36 BARTLETT TN
View Video 258 MEREDITH HOUSTON 37:56.31 37:20.41 12:01/mile 5K 495 F 256 35 35-39 39 NESBIT MS
View Video 72 CHRIS CAMPBELL 38:13.84 37:23.12 12:01/mile 5K 496 M 240 77 70-98 4 MEMPHIS TN
View Video 272 ALLYSON JARRETT 38:36.77 37:28.37 12:03/mile 5K 497 F 257 38 35-39 40 MEMPHIS TN
View Video 209 PATRICK GROBEN 38:22.89 37:29.42 12:03/mile 5K 498 M 241 21 20-24 17 MEMPHIS TN
View Video 426 NICHOLAS PHARR 38:25.21 37:31.48 12:04/mile 5K 499 M 242 21 20-24 18 CORDOVA TN
View Video 43 TAYLOR BISHOP 38:08.87 37:35.28 12:05/mile 5K 500 F 258 19 15-19 6 COLLIERVILLE TN